sensor_id;sensor_type;location;lat;lon;timestamp;P1;durP1;ratioP1;P2;durP2;ratioP2
66175;SDS011;52977;44.816;20.538;2023-03-03T00:01:37;35.25;;;13.00;;
66175;SDS011;52977;44.816;20.538;2023-03-03T00:04:04;37.78;;;14.65;;
66175;SDS011;52977;44.816;20.538;2023-03-03T00:06:30;40.53;;;15.15;;
66175;SDS011;52977;44.816;20.538;2023-03-03T00:08:57;35.85;;;13.70;;
66175;SDS011;52977;44.816;20.538;2023-03-03T00:11:23;33.53;;;13.95;;
66175;SDS011;52977;44.816;20.538;2023-03-03T00:13:54;33.63;;;13.25;;
66175;SDS011;52977;44.816;20.538;2023-03-03T00:16:27;41.70;;;13.65;;
66175;SDS011;52977;44.816;20.538;2023-03-03T00:18:56;33.70;;;13.15;;
66175;SDS011;52977;44.816;20.538;2023-03-03T00:23:57;38.00;;;13.77;;
66175;SDS011;52977;44.816;20.538;2023-03-03T00:26:42;36.95;;;13.02;;
66175;SDS011;52977;44.816;20.538;2023-03-03T00:34:45;33.28;;;12.68;;
66175;SDS011;52977;44.816;20.538;2023-03-03T00:37:31;33.90;;;12.45;;
66175;SDS011;52977;44.816;20.538;2023-03-03T00:40:12;32.90;;;12.15;;
66175;SDS011;52977;44.816;20.538;2023-03-03T00:42:47;35.13;;;12.38;;
66175;SDS011;52977;44.816;20.538;2023-03-03T00:45:17;36.50;;;13.55;;
66175;SDS011;52977;44.816;20.538;2023-03-03T00:47:51;32.42;;;12.50;;
66175;SDS011;52977;44.816;20.538;2023-03-03T00:52:58;33.13;;;12.43;;
66175;SDS011;52977;44.816;20.538;2023-03-03T00:55:39;35.38;;;12.20;;
66175;SDS011;52977;44.816;20.538;2023-03-03T00:58:05;32.88;;;13.27;;
66175;SDS011;52977;44.816;20.538;2023-03-03T01:00:37;38.15;;;14.27;;
66175;SDS011;52977;44.816;20.538;2023-03-03T01:03:09;33.58;;;12.55;;
66175;SDS011;52977;44.816;20.538;2023-03-03T01:05:39;33.45;;;12.35;;
66175;SDS011;52977;44.816;20.538;2023-03-03T01:08:07;37.92;;;14.10;;
66175;SDS011;52977;44.816;20.538;2023-03-03T01:10:35;39.50;;;13.98;;
66175;SDS011;52977;44.816;20.538;2023-03-03T01:15:32;34.08;;;13.68;;
66175;SDS011;52977;44.816;20.538;2023-03-03T01:18:02;38.08;;;13.40;;
66175;SDS011;52977;44.816;20.538;2023-03-03T01:20:29;40.35;;;13.88;;
66175;SDS011;52977;44.816;20.538;2023-03-03T01:22:55;40.13;;;14.80;;
66175;SDS011;52977;44.816;20.538;2023-03-03T01:25:21;34.55;;;12.77;;
66175;SDS011;52977;44.816;20.538;2023-03-03T01:27:47;33.92;;;13.07;;
66175;SDS011;52977;44.816;20.538;2023-03-03T01:30:13;33.63;;;12.98;;
66175;SDS011;52977;44.816;20.538;2023-03-03T01:32:40;31.40;;;12.77;;
66175;SDS011;52977;44.816;20.538;2023-03-03T01:35:06;36.03;;;13.68;;
66175;SDS011;52977;44.816;20.538;2023-03-03T01:37:33;35.25;;;13.80;;
66175;SDS011;52977;44.816;20.538;2023-03-03T01:40:02;39.13;;;14.57;;
66175;SDS011;52977;44.816;20.538;2023-03-03T01:42:34;34.95;;;14.13;;
66175;SDS011;52977;44.816;20.538;2023-03-03T01:45:12;33.63;;;13.50;;
66175;SDS011;52977;44.816;20.538;2023-03-03T01:48:03;43.63;;;14.77;;
66175;SDS011;52977;44.816;20.538;2023-03-03T01:50:46;35.75;;;12.65;;
66175;SDS011;52977;44.816;20.538;2023-03-03T01:53:33;33.75;;;13.45;;
66175;SDS011;52977;44.816;20.538;2023-03-03T01:56:04;36.83;;;13.10;;
66175;SDS011;52977;44.816;20.538;2023-03-03T01:58:39;33.85;;;13.45;;
66175;SDS011;52977;44.816;20.538;2023-03-03T02:01:12;38.53;;;13.88;;
66175;SDS011;52977;44.816;20.538;2023-03-03T02:03:42;35.13;;;13.77;;
66175;SDS011;52977;44.816;20.538;2023-03-03T02:06:10;35.13;;;13.15;;
66175;SDS011;52977;44.816;20.538;2023-03-03T02:08:53;29.48;;;12.27;;
66175;SDS011;52977;44.816;20.538;2023-03-03T02:11:25;34.65;;;11.90;;
66175;SDS011;52977;44.816;20.538;2023-03-03T02:13:54;34.17;;;12.15;;
66175;SDS011;52977;44.816;20.538;2023-03-03T02:16:21;31.73;;;12.10;;
66175;SDS011;52977;44.816;20.538;2023-03-03T02:18:47;33.78;;;12.18;;
66175;SDS011;52977;44.816;20.538;2023-03-03T02:21:15;29.63;;;10.60;;
66175;SDS011;52977;44.816;20.538;2023-03-03T02:26:38;28.48;;;11.25;;
66175;SDS011;52977;44.816;20.538;2023-03-03T02:29:08;29.13;;;11.23;;
66175;SDS011;52977;44.816;20.538;2023-03-03T02:31:38;29.08;;;11.52;;
66175;SDS011;52977;44.816;20.538;2023-03-03T02:34:05;29.25;;;11.77;;
66175;SDS011;52977;44.816;20.538;2023-03-03T02:36:36;31.10;;;11.55;;
66175;SDS011;52977;44.816;20.538;2023-03-03T02:41:57;33.05;;;12.48;;
66175;SDS011;52977;44.816;20.538;2023-03-03T02:44:44;35.13;;;12.00;;
66175;SDS011;52977;44.816;20.538;2023-03-03T02:47:11;31.30;;;12.10;;
66175;SDS011;52977;44.816;20.538;2023-03-03T02:49:37;30.65;;;12.02;;
66175;SDS011;52977;44.816;20.538;2023-03-03T02:52:05;31.65;;;12.00;;
66175;SDS011;52977;44.816;20.538;2023-03-03T02:54:35;40.20;;;13.25;;
66175;SDS011;52977;44.816;20.538;2023-03-03T02:57:01;31.25;;;11.02;;
66175;SDS011;52977;44.816;20.538;2023-03-03T02:59:28;38.03;;;12.82;;
66175;SDS011;52977;44.816;20.538;2023-03-03T03:01:56;32.90;;;12.32;;
66175;SDS011;52977;44.816;20.538;2023-03-03T03:04:23;37.60;;;12.18;;
66175;SDS011;52977;44.816;20.538;2023-03-03T03:06:50;32.63;;;11.88;;
66175;SDS011;52977;44.816;20.538;2023-03-03T03:09:17;33.63;;;12.25;;
66175;SDS011;52977;44.816;20.538;2023-03-03T03:11:46;30.38;;;11.05;;
66175;SDS011;52977;44.816;20.538;2023-03-03T03:14:15;30.95;;;11.48;;
66175;SDS011;52977;44.816;20.538;2023-03-03T03:16:42;27.13;;;10.98;;
66175;SDS011;52977;44.816;20.538;2023-03-03T03:19:08;25.92;;;10.73;;
66175;SDS011;52977;44.816;20.538;2023-03-03T03:21:35;25.70;;;10.35;;
66175;SDS011;52977;44.816;20.538;2023-03-03T03:24:03;28.15;;;10.88;;
66175;SDS011;52977;44.816;20.538;2023-03-03T03:26:30;28.23;;;10.95;;
66175;SDS011;52977;44.816;20.538;2023-03-03T03:28:57;32.25;;;11.45;;
66175;SDS011;52977;44.816;20.538;2023-03-03T03:31:23;30.13;;;11.75;;
66175;SDS011;52977;44.816;20.538;2023-03-03T03:33:50;32.35;;;11.82;;
66175;SDS011;52977;44.816;20.538;2023-03-03T03:36:19;32.40;;;12.25;;
66175;SDS011;52977;44.816;20.538;2023-03-03T03:38:45;31.30;;;12.65;;
66175;SDS011;52977;44.816;20.538;2023-03-03T03:41:12;30.35;;;12.40;;
66175;SDS011;52977;44.816;20.538;2023-03-03T03:43:38;37.33;;;13.30;;
66175;SDS011;52977;44.816;20.538;2023-03-03T03:46:05;34.30;;;13.18;;
66175;SDS011;52977;44.816;20.538;2023-03-03T03:48:33;28.23;;;11.23;;
66175;SDS011;52977;44.816;20.538;2023-03-03T03:51:01;26.40;;;11.35;;
66175;SDS011;52977;44.816;20.538;2023-03-03T03:53:29;25.70;;;10.95;;
66175;SDS011;52977;44.816;20.538;2023-03-03T03:55:55;28.63;;;10.95;;
66175;SDS011;52977;44.816;20.538;2023-03-03T03:58:22;28.63;;;10.27;;
66175;SDS011;52977;44.816;20.538;2023-03-03T04:00:53;31.45;;;11.73;;
66175;SDS011;52977;44.816;20.538;2023-03-03T04:03:20;28.73;;;11.00;;
66175;SDS011;52977;44.816;20.538;2023-03-03T04:05:47;28.98;;;11.57;;
66175;SDS011;52977;44.816;20.538;2023-03-03T04:08:13;27.58;;;10.93;;
66175;SDS011;52977;44.816;20.538;2023-03-03T04:10:41;26.83;;;10.77;;
66175;SDS011;52977;44.816;20.538;2023-03-03T04:13:07;25.23;;;12.00;;
66175;SDS011;52977;44.816;20.538;2023-03-03T04:15:34;26.60;;;10.50;;
66175;SDS011;52977;44.816;20.538;2023-03-03T04:18:02;32.00;;;12.15;;
66175;SDS011;52977;44.816;20.538;2023-03-03T04:20:29;30.27;;;11.23;;
66175;SDS011;52977;44.816;20.538;2023-03-03T04:22:55;29.20;;;10.65;;
66175;SDS011;52977;44.816;20.538;2023-03-03T04:25:23;28.48;;;11.10;;
66175;SDS011;52977;44.816;20.538;2023-03-03T04:27:51;29.98;;;10.93;;
66175;SDS011;52977;44.816;20.538;2023-03-03T04:30:19;31.95;;;11.65;;
66175;SDS011;52977;44.816;20.538;2023-03-03T04:32:47;22.05;;;10.15;;
66175;SDS011;52977;44.816;20.538;2023-03-03T04:35:16;27.80;;;11.30;;
66175;SDS011;52977;44.816;20.538;2023-03-03T04:37:42;29.30;;;12.18;;
66175;SDS011;52977;44.816;20.538;2023-03-03T04:40:10;28.77;;;11.20;;
66175;SDS011;52977;44.816;20.538;2023-03-03T04:42:36;27.73;;;11.35;;
66175;SDS011;52977;44.816;20.538;2023-03-03T04:45:04;25.67;;;10.68;;
66175;SDS011;52977;44.816;20.538;2023-03-03T04:47:32;28.65;;;11.98;;
66175;SDS011;52977;44.816;20.538;2023-03-03T04:49:59;28.00;;;11.50;;
66175;SDS011;52977;44.816;20.538;2023-03-03T04:52:28;28.50;;;10.90;;
66175;SDS011;52977;44.816;20.538;2023-03-03T04:54:54;24.73;;;10.38;;
66175;SDS011;52977;44.816;20.538;2023-03-03T04:57:21;23.30;;;10.35;;
66175;SDS011;52977;44.816;20.538;2023-03-03T04:59:48;29.30;;;12.45;;
66175;SDS011;52977;44.816;20.538;2023-03-03T05:02:14;25.90;;;10.82;;
66175;SDS011;52977;44.816;20.538;2023-03-03T05:04:41;28.77;;;11.52;;
66175;SDS011;52977;44.816;20.538;2023-03-03T05:07:07;26.83;;;11.95;;
66175;SDS011;52977;44.816;20.538;2023-03-03T05:09:34;29.50;;;11.80;;
66175;SDS011;52977;44.816;20.538;2023-03-03T05:12:01;28.33;;;11.43;;
66175;SDS011;52977;44.816;20.538;2023-03-03T05:14:27;27.63;;;10.60;;
66175;SDS011;52977;44.816;20.538;2023-03-03T05:16:53;30.52;;;11.63;;
66175;SDS011;52977;44.816;20.538;2023-03-03T05:19:19;24.80;;;10.82;;
66175;SDS011;52977;44.816;20.538;2023-03-03T05:21:45;26.55;;;10.15;;
66175;SDS011;52977;44.816;20.538;2023-03-03T05:24:12;29.98;;;12.30;;
66175;SDS011;52977;44.816;20.538;2023-03-03T05:26:39;28.17;;;11.85;;
66175;SDS011;52977;44.816;20.538;2023-03-03T05:29:06;29.33;;;11.57;;
66175;SDS011;52977;44.816;20.538;2023-03-03T05:31:33;26.52;;;12.00;;
66175;SDS011;52977;44.816;20.538;2023-03-03T05:34:00;29.38;;;13.15;;
66175;SDS011;52977;44.816;20.538;2023-03-03T05:36:26;37.92;;;14.63;;
66175;SDS011;52977;44.816;20.538;2023-03-03T05:38:53;35.45;;;14.05;;
66175;SDS011;52977;44.816;20.538;2023-03-03T05:41:18;32.72;;;13.32;;
66175;SDS011;52977;44.816;20.538;2023-03-03T05:43:44;34.45;;;13.57;;
66175;SDS011;52977;44.816;20.538;2023-03-03T05:46:10;33.88;;;13.05;;
66175;SDS011;52977;44.816;20.538;2023-03-03T05:48:36;37.25;;;14.65;;
66175;SDS011;52977;44.816;20.538;2023-03-03T05:51:01;37.33;;;15.00;;
66175;SDS011;52977;44.816;20.538;2023-03-03T05:53:27;32.25;;;14.45;;
66175;SDS011;52977;44.816;20.538;2023-03-03T05:55:53;48.92;;;18.02;;
66175;SDS011;52977;44.816;20.538;2023-03-03T05:58:19;38.63;;;15.48;;
66175;SDS011;52977;44.816;20.538;2023-03-03T06:00:45;38.38;;;14.18;;
66175;SDS011;52977;44.816;20.538;2023-03-03T06:03:11;33.47;;;13.30;;
66175;SDS011;52977;44.816;20.538;2023-03-03T06:05:36;32.03;;;13.45;;
66175;SDS011;52977;44.816;20.538;2023-03-03T06:08:03;32.85;;;13.05;;
66175;SDS011;52977;44.816;20.538;2023-03-03T06:10:29;30.45;;;12.85;;
66175;SDS011;52977;44.816;20.538;2023-03-03T06:12:57;28.92;;;12.23;;
66175;SDS011;52977;44.816;20.538;2023-03-03T06:15:23;25.80;;;11.20;;
66175;SDS011;52977;44.816;20.538;2023-03-03T06:17:49;29.83;;;11.90;;
66175;SDS011;52977;44.816;20.538;2023-03-03T06:20:15;27.55;;;11.48;;
66175;SDS011;52977;44.816;20.538;2023-03-03T06:22:40;27.70;;;11.50;;
66175;SDS011;52977;44.816;20.538;2023-03-03T06:25:06;24.67;;;10.38;;
66175;SDS011;52977;44.816;20.538;2023-03-03T06:27:32;28.73;;;10.70;;
66175;SDS011;52977;44.816;20.538;2023-03-03T06:29:58;26.58;;;10.25;;
66175;SDS011;52977;44.816;20.538;2023-03-03T06:32:24;25.27;;;10.88;;
66175;SDS011;52977;44.816;20.538;2023-03-03T06:34:49;28.08;;;12.35;;
66175;SDS011;52977;44.816;20.538;2023-03-03T06:37:16;30.48;;;12.32;;
66175;SDS011;52977;44.816;20.538;2023-03-03T06:39:42;29.38;;;11.73;;
66175;SDS011;52977;44.816;20.538;2023-03-03T06:42:08;30.77;;;11.77;;
66175;SDS011;52977;44.816;20.538;2023-03-03T06:44:35;27.60;;;11.43;;
66175;SDS011;52977;44.816;20.538;2023-03-03T06:47:01;25.95;;;11.50;;
66175;SDS011;52977;44.816;20.538;2023-03-03T06:49:28;32.53;;;12.40;;
66175;SDS011;52977;44.816;20.538;2023-03-03T06:51:54;27.30;;;12.02;;
66175;SDS011;52977;44.816;20.538;2023-03-03T06:54:26;28.05;;;11.73;;
66175;SDS011;52977;44.816;20.538;2023-03-03T06:56:57;30.13;;;12.77;;
66175;SDS011;52977;44.816;20.538;2023-03-03T06:59:26;32.30;;;13.13;;
66175;SDS011;52977;44.816;20.538;2023-03-03T07:01:53;26.98;;;11.65;;
66175;SDS011;52977;44.816;20.538;2023-03-03T07:06:54;25.73;;;11.63;;
66175;SDS011;52977;44.816;20.538;2023-03-03T07:09:22;29.77;;;12.15;;
66175;SDS011;52977;44.816;20.538;2023-03-03T07:11:51;28.73;;;12.73;;
66175;SDS011;52977;44.816;20.538;2023-03-03T07:14:19;30.48;;;11.77;;
66175;SDS011;52977;44.816;20.538;2023-03-03T07:16:45;31.55;;;12.70;;
66175;SDS011;52977;44.816;20.538;2023-03-03T07:19:20;36.23;;;14.27;;
66175;SDS011;52977;44.816;20.538;2023-03-03T07:21:57;43.22;;;15.57;;
66175;SDS011;52977;44.816;20.538;2023-03-03T07:24:31;39.55;;;15.85;;
66175;SDS011;52977;44.816;20.538;2023-03-03T07:27:16;35.67;;;15.13;;
66175;SDS011;52977;44.816;20.538;2023-03-03T07:29:53;33.42;;;14.35;;
66175;SDS011;52977;44.816;20.538;2023-03-03T07:32:26;39.67;;;15.32;;
66175;SDS011;52977;44.816;20.538;2023-03-03T07:35:00;36.58;;;14.00;;
66175;SDS011;52977;44.816;20.538;2023-03-03T07:42:56;34.22;;;12.93;;
66175;SDS011;52977;44.816;20.538;2023-03-03T07:45:34;35.45;;;14.95;;
66175;SDS011;52977;44.816;20.538;2023-03-03T07:50:38;37.63;;;15.07;;
66175;SDS011;52977;44.816;20.538;2023-03-03T07:53:11;35.75;;;14.15;;
66175;SDS011;52977;44.816;20.538;2023-03-03T07:55:46;44.13;;;16.52;;
66175;SDS011;52977;44.816;20.538;2023-03-03T08:05:45;36.30;;;14.57;;
66175;SDS011;52977;44.816;20.538;2023-03-03T08:11:01;42.20;;;15.32;;
66175;SDS011;52977;44.816;20.538;2023-03-03T08:16:02;41.10;;;15.15;;
66175;SDS011;52977;44.816;20.538;2023-03-03T08:18:49;31.60;;;13.93;;
66175;SDS011;52977;44.816;20.538;2023-03-03T08:21:18;45.42;;;16.70;;
66175;SDS011;52977;44.816;20.538;2023-03-03T08:23:46;38.95;;;15.07;;
66175;SDS011;52977;44.816;20.538;2023-03-03T08:26:17;42.70;;;15.05;;
66175;SDS011;52977;44.816;20.538;2023-03-03T08:28:44;33.40;;;14.00;;
66175;SDS011;52977;44.816;20.538;2023-03-03T08:31:11;35.97;;;14.73;;
66175;SDS011;52977;44.816;20.538;2023-03-03T08:33:38;38.50;;;15.35;;
66175;SDS011;52977;44.816;20.538;2023-03-03T08:36:04;35.55;;;15.02;;
66175;SDS011;52977;44.816;20.538;2023-03-03T08:38:32;38.47;;;15.07;;
66175;SDS011;52977;44.816;20.538;2023-03-03T08:40:59;40.28;;;17.30;;
66175;SDS011;52977;44.816;20.538;2023-03-03T08:43:25;39.60;;;15.88;;
66175;SDS011;52977;44.816;20.538;2023-03-03T08:45:52;36.88;;;13.80;;
66175;SDS011;52977;44.816;20.538;2023-03-03T08:48:22;44.17;;;16.67;;
66175;SDS011;52977;44.816;20.538;2023-03-03T08:50:48;52.00;;;21.75;;
66175;SDS011;52977;44.816;20.538;2023-03-03T08:53:15;53.15;;;20.88;;
66175;SDS011;52977;44.816;20.538;2023-03-03T08:55:43;57.70;;;21.42;;
66175;SDS011;52977;44.816;20.538;2023-03-03T08:58:12;45.95;;;18.35;;
66175;SDS011;52977;44.816;20.538;2023-03-03T09:00:40;39.65;;;17.33;;
66175;SDS011;52977;44.816;20.538;2023-03-03T09:03:07;38.92;;;16.25;;
66175;SDS011;52977;44.816;20.538;2023-03-03T09:05:33;43.30;;;16.08;;
66175;SDS011;52977;44.816;20.538;2023-03-03T09:07:59;34.78;;;14.73;;
66175;SDS011;52977;44.816;20.538;2023-03-03T09:10:26;42.55;;;15.95;;
66175;SDS011;52977;44.816;20.538;2023-03-03T09:12:55;35.47;;;15.60;;
66175;SDS011;52977;44.816;20.538;2023-03-03T09:15:24;38.97;;;14.85;;
66175;SDS011;52977;44.816;20.538;2023-03-03T09:17:59;39.67;;;15.68;;
66175;SDS011;52977;44.816;20.538;2023-03-03T09:20:39;43.40;;;16.50;;
66175;SDS011;52977;44.816;20.538;2023-03-03T09:25:49;39.42;;;14.90;;
66175;SDS011;52977;44.816;20.538;2023-03-03T09:28:29;33.63;;;14.57;;
66175;SDS011;52977;44.816;20.538;2023-03-03T09:30:58;47.25;;;17.25;;
66175;SDS011;52977;44.816;20.538;2023-03-03T09:33:46;42.03;;;16.15;;
66175;SDS011;52977;44.816;20.538;2023-03-03T09:36:29;45.78;;;17.33;;
66175;SDS011;52977;44.816;20.538;2023-03-03T09:39:10;43.92;;;16.58;;
66175;SDS011;52977;44.816;20.538;2023-03-03T09:41:47;38.67;;;16.98;;
66175;SDS011;52977;44.816;20.538;2023-03-03T09:47:32;36.33;;;14.88;;
66175;SDS011;52977;44.816;20.538;2023-03-03T09:56:14;42.97;;;15.60;;
66175;SDS011;52977;44.816;20.538;2023-03-03T10:04:09;30.77;;;12.90;;
66175;SDS011;52977;44.816;20.538;2023-03-03T10:34:14;27.58;;;12.57;;
66175;SDS011;52977;44.816;20.538;2023-03-03T10:42:29;30.27;;;13.50;;
66175;SDS011;52977;44.816;20.538;2023-03-03T10:48:11;27.52;;;12.40;;
66175;SDS011;52977;44.816;20.538;2023-03-03T10:53:37;27.98;;;12.10;;
66175;SDS011;52977;44.816;20.538;2023-03-03T10:59:02;29.15;;;11.98;;
66175;SDS011;52977;44.816;20.538;2023-03-03T11:10:00;30.35;;;11.80;;
66175;SDS011;52977;44.816;20.538;2023-03-03T11:18:10;23.25;;;10.75;;
66175;SDS011;52977;44.816;20.538;2023-03-03T11:24:01;19.00;;;7.80;;
66175;SDS011;52977;44.816;20.538;2023-03-03T11:26:40;20.33;;;8.65;;
66175;SDS011;52977;44.816;20.538;2023-03-03T11:31:52;22.70;;;9.40;;
66175;SDS011;52977;44.816;20.538;2023-03-03T11:40:11;22.92;;;8.90;;
66175;SDS011;52977;44.816;20.538;2023-03-03T11:45:29;21.20;;;9.27;;
66175;SDS011;52977;44.816;20.538;2023-03-03T11:48:06;17.02;;;8.45;;
66175;SDS011;52977;44.816;20.538;2023-03-03T11:56:22;25.83;;;8.68;;
66175;SDS011;52977;44.816;20.538;2023-03-03T11:59:09;21.45;;;8.77;;
66175;SDS011;52977;44.816;20.538;2023-03-03T12:01:59;21.58;;;7.95;;
66175;SDS011;52977;44.816;20.538;2023-03-03T12:04:57;19.63;;;7.90;;
66175;SDS011;52977;44.816;20.538;2023-03-03T12:18:45;20.83;;;9.10;;
66175;SDS011;52977;44.816;20.538;2023-03-03T12:24:41;20.02;;;8.07;;
66175;SDS011;52977;44.816;20.538;2023-03-03T12:40:33;22.75;;;9.05;;
66175;SDS011;52977;44.816;20.538;2023-03-03T12:43:22;23.27;;;9.00;;
66175;SDS011;52977;44.816;20.538;2023-03-03T12:48:43;26.52;;;10.05;;
66175;SDS011;52977;44.816;20.538;2023-03-03T12:51:23;20.33;;;9.10;;
66175;SDS011;52977;44.816;20.538;2023-03-03T12:56:32;23.10;;;9.80;;
66175;SDS011;52977;44.816;20.538;2023-03-03T12:59:09;19.48;;;8.48;;
66175;SDS011;52977;44.816;20.538;2023-03-03T13:01:55;21.92;;;9.35;;
66175;SDS011;52977;44.816;20.538;2023-03-03T13:07:25;24.48;;;9.23;;
66175;SDS011;52977;44.816;20.538;2023-03-03T13:16:01;25.13;;;10.13;;
66175;SDS011;52977;44.816;20.538;2023-03-03T13:18:54;25.88;;;9.13;;
66175;SDS011;52977;44.816;20.538;2023-03-03T13:21:38;23.67;;;9.60;;
66175;SDS011;52977;44.816;20.538;2023-03-03T13:26:52;20.67;;;10.27;;
66175;SDS011;52977;44.816;20.538;2023-03-03T13:29:25;25.45;;;10.18;;
66175;SDS011;52977;44.816;20.538;2023-03-03T13:32:38;24.90;;;10.43;;
66175;SDS011;52977;44.816;20.538;2023-03-03T13:34:58;22.75;;;9.50;;
66175;SDS011;52977;44.816;20.538;2023-03-03T13:37:29;24.88;;;9.25;;
66175;SDS011;52977;44.816;20.538;2023-03-03T13:45:30;24.25;;;9.73;;
66175;SDS011;52977;44.816;20.538;2023-03-03T13:48:21;23.80;;;9.73;;
66175;SDS011;52977;44.816;20.538;2023-03-03T13:50:56;23.75;;;10.45;;
66175;SDS011;52977;44.816;20.538;2023-03-03T13:56:15;21.75;;;9.77;;
66175;SDS011;52977;44.816;20.538;2023-03-03T13:59:11;20.80;;;9.55;;
66175;SDS011;52977;44.816;20.538;2023-03-03T14:04:53;24.75;;;9.80;;
66175;SDS011;52977;44.816;20.538;2023-03-03T14:07:38;21.10;;;9.45;;
66175;SDS011;52977;44.816;20.538;2023-03-03T14:10:22;23.88;;;9.57;;
66175;SDS011;52977;44.816;20.538;2023-03-03T14:13:08;25.08;;;9.25;;
66175;SDS011;52977;44.816;20.538;2023-03-03T14:18:22;21.02;;;9.32;;
66175;SDS011;52977;44.816;20.538;2023-03-03T14:20:53;22.73;;;10.13;;
66175;SDS011;52977;44.816;20.538;2023-03-03T14:23:33;23.77;;;9.82;;
66175;SDS011;52977;44.816;20.538;2023-03-03T14:28:36;24.25;;;9.45;;
66175;SDS011;52977;44.816;20.538;2023-03-03T14:31:28;18.38;;;8.27;;
66175;SDS011;52977;44.816;20.538;2023-03-03T14:36:47;19.80;;;8.20;;
66175;SDS011;52977;44.816;20.538;2023-03-03T14:39:33;21.75;;;9.13;;
66175;SDS011;52977;44.816;20.538;2023-03-03T14:42:12;23.90;;;8.75;;
66175;SDS011;52977;44.816;20.538;2023-03-03T14:44:54;21.13;;;9.15;;
66175;SDS011;52977;44.816;20.538;2023-03-03T14:47:26;31.17;;;12.27;;
66175;SDS011;52977;44.816;20.538;2023-03-03T14:49:54;24.13;;;10.00;;
66175;SDS011;52977;44.816;20.538;2023-03-03T14:52:25;22.13;;;10.13;;
66175;SDS011;52977;44.816;20.538;2023-03-03T14:54:53;25.38;;;10.70;;
66175;SDS011;52977;44.816;20.538;2023-03-03T14:57:37;21.38;;;9.40;;
66175;SDS011;52977;44.816;20.538;2023-03-03T15:07:50;30.40;;;11.18;;
66175;SDS011;52977;44.816;20.538;2023-03-03T15:10:40;26.63;;;12.13;;
66175;SDS011;52977;44.816;20.538;2023-03-03T15:18:23;34.13;;;13.68;;
66175;SDS011;52977;44.816;20.538;2023-03-03T15:21:06;31.23;;;14.07;;
66175;SDS011;52977;44.816;20.538;2023-03-03T15:23:58;35.78;;;14.70;;
66175;SDS011;52977;44.816;20.538;2023-03-03T15:37:22;30.88;;;13.63;;
66175;SDS011;52977;44.816;20.538;2023-03-03T15:40:21;27.77;;;13.75;;
66175;SDS011;52977;44.816;20.538;2023-03-03T15:42:56;30.17;;;13.57;;
66175;SDS011;52977;44.816;20.538;2023-03-03T15:45:56;27.17;;;12.60;;
66175;SDS011;52977;44.816;20.538;2023-03-03T15:51:22;28.75;;;13.30;;
66175;SDS011;52977;44.816;20.538;2023-03-03T15:54:08;26.33;;;12.07;;
66175;SDS011;52977;44.816;20.538;2023-03-03T15:56:53;31.15;;;13.82;;
66175;SDS011;52977;44.816;20.538;2023-03-03T16:02:48;37.90;;;16.13;;
66175;SDS011;52977;44.816;20.538;2023-03-03T16:05:22;36.72;;;16.00;;
66175;SDS011;52977;44.816;20.538;2023-03-03T16:14:37;39.08;;;16.38;;
66175;SDS011;52977;44.816;20.538;2023-03-03T16:22:53;46.88;;;17.70;;
66175;SDS011;52977;44.816;20.538;2023-03-03T16:31:11;50.23;;;20.37;;
66175;SDS011;52977;44.816;20.538;2023-03-03T16:33:57;55.20;;;21.70;;
66175;SDS011;52977;44.816;20.538;2023-03-03T16:38:52;54.78;;;22.00;;
66175;SDS011;52977;44.816;20.538;2023-03-03T16:41:40;60.08;;;22.60;;
66175;SDS011;52977;44.816;20.538;2023-03-03T16:47:17;59.47;;;21.88;;
66175;SDS011;52977;44.816;20.538;2023-03-03T17:07:24;66.00;;;24.63;;
66175;SDS011;52977;44.816;20.538;2023-03-03T17:10:26;71.20;;;26.30;;
66175;SDS011;52977;44.816;20.538;2023-03-03T17:15:54;71.43;;;26.38;;
66175;SDS011;52977;44.816;20.538;2023-03-03T17:21:02;74.35;;;27.02;;
66175;SDS011;52977;44.816;20.538;2023-03-03T17:40:04;71.65;;;27.48;;
66175;SDS011;52977;44.816;20.538;2023-03-03T17:43:22;82.28;;;30.70;;
66175;SDS011;52977;44.816;20.538;2023-03-03T17:45:35;87.43;;;29.83;;
66175;SDS011;52977;44.816;20.538;2023-03-03T17:53:41;83.97;;;31.20;;
66175;SDS011;52977;44.816;20.538;2023-03-03T17:56:38;85.90;;;31.77;;
66175;SDS011;52977;44.816;20.538;2023-03-03T17:59:34;89.88;;;31.42;;
66175;SDS011;52977;44.816;20.538;2023-03-03T18:02:28;80.45;;;30.02;;
66175;SDS011;52977;44.816;20.538;2023-03-03T18:16:49;82.47;;;27.45;;
66175;SDS011;52977;44.816;20.538;2023-03-03T18:19:37;86.70;;;30.20;;
66175;SDS011;52977;44.816;20.538;2023-03-03T18:22:12;90.30;;;31.27;;
66175;SDS011;52977;44.816;20.538;2023-03-03T18:25:07;82.50;;;27.15;;
66175;SDS011;52977;44.816;20.538;2023-03-03T18:27:43;89.38;;;28.80;;
66175;SDS011;52977;44.816;20.538;2023-03-03T18:30:17;86.07;;;27.80;;
66175;SDS011;52977;44.816;20.538;2023-03-03T18:32:47;85.93;;;29.13;;
66175;SDS011;52977;44.816;20.538;2023-03-03T18:48:53;94.30;;;30.60;;
66175;SDS011;52977;44.816;20.538;2023-03-03T18:53:59;87.75;;;29.13;;
66175;SDS011;52977;44.816;20.538;2023-03-03T18:56:49;86.50;;;30.60;;
66175;SDS011;52977;44.816;20.538;2023-03-03T19:04:52;79.30;;;29.77;;
66175;SDS011;52977;44.816;20.538;2023-03-03T19:09:54;88.47;;;29.42;;
66175;SDS011;52977;44.816;20.538;2023-03-03T19:12:41;85.50;;;30.50;;
66175;SDS011;52977;44.816;20.538;2023-03-03T19:20:25;81.93;;;29.50;;
66175;SDS011;52977;44.816;20.538;2023-03-03T19:23:05;84.97;;;30.20;;
66175;SDS011;52977;44.816;20.538;2023-03-03T19:25:37;83.57;;;29.60;;
66175;SDS011;52977;44.816;20.538;2023-03-03T19:40:59;85.72;;;27.42;;
66175;SDS011;52977;44.816;20.538;2023-03-03T19:51:56;74.97;;;25.92;;
66175;SDS011;52977;44.816;20.538;2023-03-03T20:00:02;76.05;;;25.75;;
66175;SDS011;52977;44.816;20.538;2023-03-03T20:02:45;74.38;;;25.92;;
66175;SDS011;52977;44.816;20.538;2023-03-03T20:09:19;69.78;;;25.27;;
66175;SDS011;52977;44.816;20.538;2023-03-03T20:28:35;78.43;;;25.77;;
66175;SDS011;52977;44.816;20.538;2023-03-03T20:36:57;76.45;;;25.25;;
66175;SDS011;52977;44.816;20.538;2023-03-03T20:49:10;73.28;;;24.33;;
66175;SDS011;52977;44.816;20.538;2023-03-03T20:59:23;78.22;;;26.52;;
66175;SDS011;52977;44.816;20.538;2023-03-03T21:04:40;77.47;;;25.52;;
66175;SDS011;52977;44.816;20.538;2023-03-03T21:07:06;72.78;;;25.83;;
66175;SDS011;52977;44.816;20.538;2023-03-03T21:09:35;73.38;;;24.55;;
66175;SDS011;52977;44.816;20.538;2023-03-03T21:12:10;76.28;;;25.60;;
66175;SDS011;52977;44.816;20.538;2023-03-03T21:15:05;72.43;;;26.10;;
66175;SDS011;52977;44.816;20.538;2023-03-03T21:17:35;71.93;;;25.40;;
66175;SDS011;52977;44.816;20.538;2023-03-03T21:22:47;76.38;;;25.67;;
66175;SDS011;52977;44.816;20.538;2023-03-03T21:28:11;81.13;;;25.67;;
66175;SDS011;52977;44.816;20.538;2023-03-03T21:30:57;83.22;;;26.05;;
66175;SDS011;52977;44.816;20.538;2023-03-03T21:33:50;78.15;;;25.98;;
66175;SDS011;52977;44.816;20.538;2023-03-03T21:38:51;78.78;;;24.80;;
66175;SDS011;52977;44.816;20.538;2023-03-03T21:41:21;77.53;;;25.90;;
66175;SDS011;52977;44.816;20.538;2023-03-03T21:43:49;73.15;;;22.52;;